PMDY METAR and TAF weather

Enter ICAO airport designator
Station Type Date Time Source
PMDY METAR 2019/05/23 18:56 UTC NOAA

PMDY 231856Z AUTO 33009G15KT 10SM FEW045 19/09 A3001 RMK AO2 SLP163 T01890094


Station Type Date Time Source
PMDY Decoded METAR 2019/05/23 18:56 UTC NOAA

Sand Island, Henderson Field Airport, HI, United States (PMDY) 28-13N 177-22W 6M
May 23, 2019 - 02:56 PM EDT / 2019.05.23 1856 UTC
Wind: from the NNW (330 degrees) at 10 MPH (9 KT) gusting to 17 MPH (15 KT):0
Visibility: 10 mile(s):0
Sky conditions: mostly clear
Temperature: 66.0 F (18.9 C)
Dew Point: 48.9 F (9.4 C)
Relative Humidity: 54%
Pressure (altimeter): 30.01 in. Hg (1016 hPa)
ob: PMDY 231856Z AUTO 33009G15KT 10SM FEW045 19/09 A3001 RMK AO2 SLP163 T01890094
cycle: 19

Station Type Date Time Source
PMDY TAF 2019/05/23 18:30 UTC NOAA

TAF PMDY 231727Z 2318/2418 32008G15KT P6SM SCT040 BKN070
FM240600 35006KT P6SM SCT025 SCT050

Example: see airport list